Time;durP1;ratioP1;P1;durP2;ratioP2;P2;SDS_P1;SDS_P2;PMS_P1;PMS_P2;Temp;Humidity;BMP_temperature;BMP_pressure;BME280_temperature;BME280_humidity;BME280_pressure;Samples;Min_cycle;Max_cycle;Signal;HPM_P1;HPM_P2
2021/04/18 00:59:10;;;;;;;28.73;11.43;;;5.30;99.90;;;;;;1255131;24;20341;31
2021/04/18 01:02:32;;;;;;;25.00;9.43;;;5.20;99.90;;;;;;4717323;30;20083;-94
2021/04/18 01:05:11;;;;;;;30.52;10.73;;;5.30;99.90;;;;;;4720153;30;20135;-94
2021/04/18 01:08:02;;;;;;;37.55;10.82;;;5.30;99.90;;;;;;4681154;30;20158;-95
2021/04/18 01:10:35;;;;;;;36.30;12.10;;;5.30;99.90;;;;;;4720344;30;20064;-95
2021/04/18 01:13:25;;;;;;;25.38;11.07;;;5.20;99.90;;;;;;4709205;30;20072;-95
2021/04/18 01:16:04;;;;;;;37.58;11.35;;;5.20;99.90;;;;;;4703843;30;20155;-95
2021/04/18 01:18:43;;;;;;;28.85;11.02;;;5.30;99.90;;;;;;4714519;30;20060;-94
2021/04/18 01:21:43;;;;;;;28.33;10.55;;;5.30;99.90;;;;;;4721888;30;20045;-94
2021/04/18 01:24:18;;;;;;;29.70;10.80;;;5.30;99.90;;;;;;4693890;30;20060;-93
2021/04/18 01:27:28;;;;;;;46.17;11.10;;;5.30;99.90;;;;;;4733375;30;20091;-93
2021/04/18 01:30:13;;;;;;;27.17;11.13;;;5.20;99.90;;;;;;4681689;30;20060;-94
2021/04/18 01:33:15;;;;;;;;;;;;;;;;;;;;;
2021/04/18 01:40:00;;;;;;;;;;;;;;;;;;;;;
2021/04/18 01:42:47;;;;;;;31.45;10.98;;;5.10;99.90;;;;;;4727222;30;20175;-93
2021/04/18 01:45:17;;;;;;;27.33;10.73;;;5.20;99.90;;;;;;4706868;30;20064;-94
2021/04/18 01:47:43;;;;;;;26.17;11.95;;;5.20;99.90;;;;;;4703432;30;20076;-93
2021/04/18 01:50:14;;;;;;;34.78;12.18;;;5.10;99.90;;;;;;4708618;30;20059;-93
2021/04/18 01:52:40;;;;;;;27.65;11.73;;;5.10;99.90;;;;;;4722779;30;20057;-92
2021/04/18 01:55:07;;;;;;;30.17;12.35;;;5.60;99.90;;;;;;4712715;30;20592;-93
2021/04/18 01:57:34;;;;;;;27.48;12.65;;;5.20;99.90;;;;;;4719296;30;20536;-92
2021/04/18 02:00:06;;;;;;;38.40;12.75;;;5.10;99.90;;;;;;4715020;30;20060;-91
2021/04/18 02:02:34;;;;;;;31.90;11.80;;;5.20;99.90;;;;;;4702928;30;20147;-92
2021/04/18 02:05:00;;;;;;;34.85;13.82;;;5.10;99.90;;;;;;4729043;30;20053;-91
2021/04/18 02:07:26;;;;;;;34.90;12.48;;;5.00;99.90;;;;;;4704528;30;20056;-92
2021/04/18 02:09:52;;;;;;;25.45;11.90;;;5.00;99.90;;;;;;4718779;30;20056;-92
2021/04/18 02:16:53;;;;;;;;;;;;;;;;;;;;;
2021/04/18 02:19:35;;;;;;;35.65;12.70;;;5.10;99.90;;;;;;4680961;30;20058;-92
2021/04/18 02:22:01;;;;;;;28.70;12.52;;;5.10;99.90;;;;;;4718734;30;20071;-91
2021/04/18 02:24:28;;;;;;;26.35;11.93;;;5.10;99.90;;;;;;4718000;30;20080;-92
2021/04/18 02:26:54;;;;;;;32.15;13.40;;;5.10;99.90;;;;;;4718592;30;20057;-91
2021/04/18 02:29:20;;;;;;;31.40;12.13;;;5.00;99.90;;;;;;4703642;30;20499;-93
2021/04/18 02:31:48;;;;;;;30.50;12.02;;;5.00;99.90;;;;;;4718070;30;20087;-92
2021/04/18 02:34:13;;;;;;;26.48;11.88;;;4.90;99.90;;;;;;4718326;30;20487;-91
2021/04/18 02:36:39;;;;;;;35.30;12.77;;;4.90;99.90;;;;;;4717767;30;20056;-92
2021/04/18 02:39:08;;;;;;;33.35;13.43;;;5.20;99.90;;;;;;4713100;30;20418;-93
2021/04/18 02:42:23;;;;;;;24.77;11.52;;;4.80;99.90;;;;;;4704142;30;20064;-94
2021/04/18 02:45:32;;;;;;;27.90;12.23;;;4.90;99.90;;;;;;4701783;30;20515;-94
2021/04/18 02:48:06;;;;;;;34.92;13.27;;;4.90;99.90;;;;;;4718141;30;20056;-91
2021/04/18 02:50:32;;;;;;;36.83;12.82;;;4.90;99.90;;;;;;4714823;30;20056;-91
2021/04/18 02:53:44;;;;;;;29.35;11.77;;;5.00;99.90;;;;;;4701108;30;20424;-95
2021/04/18 02:56:59;;;;;;;30.45;12.18;;;5.10;99.90;;;;;;4704355;30;20053;-95
2021/04/18 02:59:32;;;;;;;25.25;11.45;;;5.20;99.90;;;;;;4726817;30;20446;-93
2021/04/18 03:01:58;;;;;;;23.10;12.70;;;5.20;99.90;;;;;;4698023;30;20045;-91
2021/04/18 03:04:24;;;;;;;29.52;12.05;;;5.40;99.90;;;;;;4674855;30;20073;-93
2021/04/18 03:06:50;;;;;;;32.10;13.82;;;5.20;99.90;;;;;;4704082;30;20104;-94
2021/04/18 03:09:16;;;;;;;30.55;13.18;;;5.30;99.90;;;;;;4662324;30;20053;-93
2021/04/18 03:11:42;;;;;;;27.50;13.05;;;5.30;99.90;;;;;;4683517;30;20510;-93
2021/04/18 03:14:08;;;;;;;32.60;13.73;;;5.20;99.90;;;;;;4685453;30;20114;-93
2021/04/18 03:16:34;;;;;;;33.78;13.05;;;5.40;99.90;;;;;;4700136;30;20064;-93
2021/04/18 03:19:00;;;;;;;32.78;13.18;;;5.70;99.90;;;;;;4715954;30;20045;-93
2021/04/18 03:21:26;;;;;;;33.60;12.13;;;5.20;99.90;;;;;;4685194;30;20068;-90
2021/04/18 03:23:51;;;;;;;21.58;11.02;;;5.30;99.90;;;;;;4696129;30;20136;-89
2021/04/18 03:26:18;;;;;;;29.73;13.30;;;5.30;99.90;;;;;;4710607;30;20104;-91
2021/04/18 03:28:44;;;;;;;23.30;11.30;;;5.30;99.90;;;;;;4712725;30;20291;-90
2021/04/18 03:31:13;;;;;;;23.95;12.15;;;5.20;99.90;;;;;;4702369;30;20049;-93
2021/04/18 03:33:42;;;;;;;22.58;11.50;;;5.20;99.90;;;;;;4684938;30;20152;-92
2021/04/18 03:36:09;;;;;;;28.45;12.35;;;5.20;99.90;;;;;;4686118;30;20152;-94
2021/04/18 03:38:41;;;;;;;31.98;11.90;;;5.10;99.90;;;;;;4700158;30;20057;-94
2021/04/18 03:41:15;;;;;;;26.50;11.15;;;5.10;99.90;;;;;;4700090;30;20053;-94
2021/04/18 03:43:55;;;;;;;16.95;9.30;;;5.20;99.90;;;;;;4702338;30;20049;-93
2021/04/18 03:46:23;;;;;;;29.55;8.85;;;5.20;99.90;;;;;;4700082;30;20466;-94
2021/04/18 03:48:49;;;;;;;24.13;10.25;;;5.30;99.90;;;;;;4696415;30;20064;-94
2021/04/18 03:51:17;;;;;;;23.05;10.00;;;5.40;99.90;;;;;;4700301;30;20057;-94
2021/04/18 03:53:43;;;;;;;25.40;10.45;;;5.40;99.90;;;;;;4699660;30;20049;-94
2021/04/18 03:56:13;;;;;;;27.17;10.65;;;5.40;99.90;;;;;;4717206;30;20072;-92
2021/04/18 03:58:43;;;;;;;25.60;9.95;;;5.30;99.90;;;;;;4688292;30;20410;-92
2021/04/18 04:01:09;;;;;;;15.13;9.15;;;5.50;99.90;;;;;;4718870;30;20065;-92
2021/04/18 04:03:36;;;;;;;18.98;10.25;;;5.30;99.90;;;;;;4702312;30;20079;-93
2021/04/18 04:06:03;;;;;;;23.60;11.27;;;5.40;99.90;;;;;;4700271;30;20064;-90
2021/04/18 04:08:30;;;;;;;21.33;11.25;;;5.30;99.90;;;;;;4673806;30;20057;-93
2021/04/18 04:10:56;;;;;;;23.15;11.05;;;5.40;99.90;;;;;;4688395;30;20128;-91
2021/04/18 04:13:21;;;;;;;21.77;10.88;;;5.30;99.90;;;;;;4674067;30;20057;-90
2021/04/18 04:15:47;;;;;;;28.27;11.50;;;5.20;99.90;;;;;;4688087;30;20140;-91
2021/04/18 04:18:13;;;;;;;20.33;11.10;;;5.10;99.90;;;;;;4688620;30;20056;-90
2021/04/18 04:20:39;;;;;;;30.35;12.20;;;5.10;99.90;;;;;;4673528;30;20549;-91
2021/04/18 04:23:05;;;;;;;24.50;12.13;;;5.10;99.90;;;;;;4703134;30;20049;-90
2021/04/18 04:25:32;;;;;;;24.70;12.40;;;5.00;99.90;;;;;;4687761;30;20056;-90
2021/04/18 04:27:58;;;;;;;26.67;12.18;;;5.40;99.90;;;;;;4701381;30;20475;-90
2021/04/18 04:30:25;;;;;;;30.35;12.30;;;5.20;99.90;;;;;;4688025;30;20459;-89
2021/04/18 04:32:51;;;;;;;23.02;12.10;;;4.80;99.90;;;;;;4717490;30;20060;-90
2021/04/18 04:35:18;;;;;;;22.83;11.80;;;4.80;99.90;;;;;;4702622;30;20502;-89
2021/04/18 04:37:44;;;;;;;22.92;11.38;;;4.80;99.90;;;;;;4717909;30;20491;-92
2021/04/18 04:40:13;;;;;;;19.92;11.25;;;4.80;99.90;;;;;;4688522;30;20072;-93
2021/04/18 04:42:39;;;;;;;20.75;10.85;;;4.80;99.90;;;;;;4688465;30;20049;-93
2021/04/18 04:45:08;;;;;;;18.40;9.57;;;5.10;99.90;;;;;;4689680;30;20064;-93
2021/04/18 04:47:34;;;;;;;18.50;10.70;;;5.00;99.90;;;;;;4702498;30;20057;-92
2021/04/18 04:50:00;;;;;;;20.05;10.45;;;5.00;99.90;;;;;;4698837;30;20080;-90
2021/04/18 04:52:26;;;;;;;23.15;10.52;;;5.10;99.90;;;;;;4701552;30;20056;-90
2021/04/18 04:54:53;;;;;;;24.10;10.25;;;5.20;99.90;;;;;;4686307;30;20069;-90
2021/04/18 04:57:19;;;;;;;19.20;10.82;;;5.20;99.90;;;;;;4716962;30;20045;-90
2021/04/18 04:59:45;;;;;;;21.45;9.95;;;5.20;99.90;;;;;;4688755;30;20060;-91
2021/04/18 05:02:11;;;;;;;18.80;9.55;;;5.30;99.90;;;;;;4719735;30;20116;-91
2021/04/18 05:04:38;;;;;;;25.95;11.00;;;5.30;99.90;;;;;;4704822;30;20107;-91
2021/04/18 05:07:04;;;;;;;20.63;10.70;;;5.30;99.90;;;;;;4703796;30;20064;-91
2021/04/18 05:09:33;;;;;;;18.73;9.38;;;5.30;99.90;;;;;;4705113;30;20057;-93
2021/04/18 05:12:00;;;;;;;26.80;9.88;;;5.30;99.90;;;;;;4711470;30;20096;-92
2021/04/18 05:14:26;;;;;;;26.17;10.57;;;5.40;99.90;;;;;;4702368;30;20152;-91
2021/04/18 05:16:55;;;;;;;21.70;9.98;;;5.40;99.90;;;;;;4702050;30;20060;-92
2021/04/18 05:19:21;;;;;;;21.88;8.95;;;5.50;99.90;;;;;;4716703;30;20057;-92
2021/04/18 05:21:47;;;;;;;20.02;8.88;;;5.60;99.90;;;;;;4719292;30;20051;-91
2021/04/18 05:24:13;;;;;;;26.40;10.10;;;5.80;99.90;;;;;;4703479;30;20065;-91
2021/04/18 05:26:42;;;;;;;27.15;10.65;;;5.60;99.90;;;;;;4704942;30;20498;-91
2021/04/18 05:29:07;;;;;;;22.63;9.68;;;5.60;99.90;;;;;;4719102;30;20506;-92
2021/04/18 05:31:33;;;;;;;22.52;10.65;;;5.60;99.90;;;;;;4704648;30;20053;-91
2021/04/18 05:33:59;;;;;;;26.67;12.05;;;5.70;99.90;;;;;;4715971;30;20049;-91
2021/04/18 05:36:25;;;;;;;18.65;11.27;;;5.70;99.90;;;;;;4714169;30;20060;-89
2021/04/18 05:38:51;;;;;;;19.48;11.15;;;5.80;99.90;;;;;;4709617;30;20063;-91
2021/04/18 05:41:17;;;;;;;31.30;13.23;;;5.90;99.90;;;;;;4706273;30;20426;-91
2021/04/18 05:44:04;;;;;;;29.05;11.05;;;6.00;99.90;;;;;;4711463;30;20049;-91
2021/04/18 05:46:34;;;;;;;21.02;10.57;;;6.10;99.90;;;;;;4713823;30;20136;-92
2021/04/18 05:49:00;;;;;;;22.83;9.90;;;6.20;99.90;;;;;;4695761;30;20099;-92
2021/04/18 05:51:26;;;;;;;26.63;9.98;;;6.20;99.90;;;;;;4719050;30;20095;-90
2021/04/18 05:53:52;;;;;;;22.73;9.05;;;6.30;99.90;;;;;;4714399;30;20072;-90
2021/04/18 05:56:18;;;;;;;14.25;8.43;;;6.30;99.90;;;;;;4698413;30;20495;-91
2021/04/18 05:58:44;;;;;;;20.33;8.95;;;6.50;99.90;;;;;;4718357;30;20052;-92
2021/04/18 06:01:12;;;;;;;19.45;8.73;;;6.60;99.90;;;;;;4716163;30;20466;-91
2021/04/18 06:03:39;;;;;;;20.48;9.32;;;6.60;99.90;;;;;;4701974;30;20052;-93
2021/04/18 06:06:08;;;;;;;13.63;7.47;;;6.70;99.90;;;;;;4718759;30;20052;-92
2021/04/18 06:08:34;;;;;;;13.55;7.97;;;6.70;99.90;;;;;;4702453;30;20060;-92
2021/04/18 06:11:01;;;;;;;14.20;7.57;;;6.70;99.90;;;;;;4703250;30;20143;-92
2021/04/18 06:13:38;;;;;;;17.15;8.45;;;6.60;99.90;;;;;;4705043;30;20451;-92
2021/04/18 06:16:05;;;;;;;14.93;8.48;;;6.60;99.90;;;;;;4693672;30;20060;-92
2021/04/18 06:18:31;;;;;;;14.48;8.57;;;6.60;99.90;;;;;;4701084;30;20544;-91
2021/04/18 06:20:57;;;;;;;16.88;7.93;;;6.60;99.90;;;;;;4698933;30;20140;-92
2021/04/18 06:23:26;;;;;;;13.63;8.30;;;6.60;99.90;;;;;;4708805;30;20056;-92
2021/04/18 06:25:52;;;;;;;19.25;9.00;;;6.60;99.90;;;;;;4703744;30;20129;-91
2021/04/18 06:28:20;;;;;;;11.95;8.07;;;6.60;99.90;;;;;;4718776;30;20135;-91
2021/04/18 06:30:49;;;;;;;23.33;9.02;;;6.60;99.90;;;;;;4701065;30;20063;-92
2021/04/18 06:33:16;;;;;;;22.73;8.95;;;6.70;99.90;;;;;;4704098;30;20150;-92
2021/04/18 06:35:42;;;;;;;21.55;10.68;;;6.80;99.90;;;;;;4718012;30;20103;-93
2021/04/18 06:38:09;;;;;;;21.40;10.93;;;6.90;99.90;;;;;;4718505;30;20048;-93
2021/04/18 06:40:35;;;;;;;18.27;9.15;;;7.00;99.90;;;;;;4704035;30;20084;-92
2021/04/18 06:43:10;;;;;;;14.95;9.63;;;7.10;99.90;;;;;;4721287;30;20091;-92
2021/04/18 06:48:59;;;;;;;18.77;10.35;;;7.30;99.90;;;;;;4708499;30;20079;-91
2021/04/18 06:51:27;;;;;;;17.77;9.75;;;7.40;99.90;;;;;;4719786;30;20126;-92
2021/04/18 06:53:53;;;;;;;16.73;9.85;;;7.50;99.90;;;;;;4733637;30;20049;-90
2021/04/18 06:56:24;;;;;;;17.23;9.45;;;7.60;99.90;;;;;;4726562;30;20048;-91
2021/04/18 06:59:00;;;;;;;17.05;9.48;;;7.70;99.90;;;;;;4703376;30;20068;-92
2021/04/18 07:01:28;;;;;;;20.45;9.23;;;7.80;99.90;;;;;;4724417;30;20061;-92
2021/04/18 07:04:16;;;;;;;20.02;8.73;;;7.80;99.90;;;;;;4702556;30;20110;-91
2021/04/18 07:13:54;;;;;;;14.43;7.53;;;7.90;99.90;;;;;;4722431;30;20052;-92
2021/04/18 07:21:00;;;;;;;17.40;7.47;;;8.20;99.90;;;;;;4731446;30;20077;-96
2021/04/18 07:23:30;;;;;;;15.52;7.78;;;8.40;99.90;;;;;;4718550;30;20091;-93
2021/04/18 07:38:04;;;;;;;;;;;;;;;;;;;;;
2021/04/18 07:41:16;;;;;;;15.65;7.45;;;8.70;99.90;;;;;;4673228;30;20070;-93
2021/04/18 07:48:00;;;;;;;;;;;;;;;;;;;;;
2021/04/18 07:54:46;;;;;;;12.35;6.60;;;8.80;99.90;;;;;;4683861;30;20069;-94
2021/04/18 07:57:55;;;;;;;9.13;5.88;;;9.00;99.90;;;;;;4715250;30;20057;-94
2021/04/18 08:06:05;;;;;;;;;;;;;;;;;;;;;
2021/04/18 08:13:13;;;;;;;12.23;5.32;;;9.60;99.90;;;;;;4642393;30;20127;-93
2021/04/18 08:16:02;;;;;;;7.75;3.85;;;9.80;99.90;;;;;;4649891;30;20073;-92
2021/04/18 10:02:20;;;;;;;;;;;;;;;;;;;;;
2021/04/18 10:16:34;;;;;;;7.10;4.43;;;11.80;99.90;;;;;;5957824;24;20027;-95
2021/04/18 10:19:24;;;;;;;;;;;11.80;99.90;;;;;;6010174;23;20371;-94
2021/04/18 10:23:08;;;;;;;;;;;;;;;;;;;;;
2021/04/18 10:25:44;;;;;;;7.40;4.82;;;12.00;99.90;;;;;;6116612;23;20025;-92
2021/04/18 10:28:13;;;;;;;9.70;4.88;;;12.00;99.90;;;;;;6194223;23;20450;-93
2021/04/18 10:30:49;;;;;;;11.45;4.53;;;12.00;99.90;;;;;;6221453;23;20016;-94
2021/04/18 10:33:22;;;;;;;9.13;4.47;;;12.00;99.90;;;;;;6194589;23;20012;-95
2021/04/18 10:36:25;;;;;;;;;;;;;;;;;;;;;
2021/04/18 10:39:11;;;;;;;10.07;4.68;;;12.30;99.90;;;;;;6194464;23;20012;-92
2021/04/18 10:41:47;;;;;;;12.27;4.03;;;12.20;99.90;;;;;;6172618;23;20016;-93
2021/04/18 10:44:23;;;;;;;7.45;5.22;;;12.10;99.90;;;;;;6196430;23;20012;-93
2021/04/18 10:47:24;;;;;;;7.35;4.25;;;12.00;99.90;;;;;;6192809;23;20016;-94
2021/04/18 10:50:17;;;;;;;;;;;;;;;;;;;;;
2021/04/18 10:53:15;;;;;;;12.18;4.20;;;12.20;99.90;;;;;;6183273;23;20020;-93
2021/04/18 10:55:48;;;;;;;13.70;5.30;;;12.40;99.90;;;;;;6193367;23;20028;-94
2021/04/18 10:58:48;;;;;;;13.38;4.43;;;12.30;99.90;;;;;;6212563;23;20021;-94
2021/04/18 11:01:44;;;;;;;;;;;12.30;99.90;;;;;;6093136;23;20504;-95
2021/04/18 11:04:53;;;;;;;13.40;5.05;;;12.50;99.90;;;;;;6223740;23;19919;-95
2021/04/18 11:07:21;;;;;;;9.80;4.38;;;12.40;99.90;;;;;;6213002;23;20055;-94
2021/04/18 11:13:26;;;;;;;15.05;4.47;;;12.50;99.90;;;;;;6189907;23;20016;-94
2021/04/18 11:16:06;;;;;;;8.55;3.65;;;12.50;99.90;;;;;;6151761;23;20044;-94
2021/04/18 11:18:52;;;;;;;9.10;3.70;;;12.30;99.90;;;;;;6103021;23;20025;-94
2021/04/18 11:21:23;;;;;;;14.88;4.90;;;12.40;99.90;;;;;;6136059;23;20021;-93
2021/04/18 11:23:54;;;;;;;15.35;5.07;;;12.40;99.90;;;;;;6160986;23;20017;-93
2021/04/18 11:26:26;;;;;;;11.48;5.03;;;12.40;99.90;;;;;;6102435;23;20161;-93
2021/04/18 11:29:04;;;;;;;9.98;4.68;;;12.40;99.90;;;;;;6126287;23;20347;-93
2021/04/18 11:31:58;;;;;;;12.00;4.35;;;12.40;99.90;;;;;;6126358;23;20056;-93
2021/04/18 11:34:32;;;;;;;13.77;4.72;;;12.50;99.90;;;;;;6125932;23;20044;-93
2021/04/18 11:36:59;;;;;;;15.07;4.55;;;12.60;99.90;;;;;;6151081;23;20444;-92
2021/04/18 11:39:28;;;;;;;8.77;5.13;;;12.60;99.90;;;;;;6125696;23;20109;-93
2021/04/18 11:41:55;;;;;;;8.73;4.70;;;12.50;99.90;;;;;;6101956;23;20018;-92
2021/04/18 11:44:26;;;;;;;6.85;4.82;;;12.60;99.90;;;;;;6101197;23;20972;-92
2021/04/18 11:46:53;;;;;;;10.25;4.70;;;12.60;99.90;;;;;;6176468;23;20020;-94
2021/04/18 11:49:19;;;;;;;13.52;5.28;;;12.60;99.90;;;;;;6161807;23;20016;-93
2021/04/18 11:51:48;;;;;;;12.88;4.50;;;12.50;99.90;;;;;;6162857;23;20311;-93
2021/04/18 11:54:19;;;;;;;10.10;4.40;;;12.40;99.90;;;;;;6187077;23;20040;-94
2021/04/18 11:56:45;;;;;;;11.40;4.07;;;12.40;99.90;;;;;;6209442;23;20039;-92
2021/04/18 11:59:16;;;;;;;10.60;3.67;;;12.30;99.90;;;;;;6186362;23;20020;-93
2021/04/18 12:01:45;;;;;;;12.40;4.80;;;12.30;99.90;;;;;;6211873;23;20019;-93
2021/04/18 12:04:10;;;;;;;9.52;4.15;;;12.30;99.90;;;;;;6186367;23;20052;-93
2021/04/18 12:06:36;;;;;;;11.70;4.90;;;12.20;99.90;;;;;;6211934;23;20016;-94
2021/04/18 12:09:03;;;;;;;7.95;4.68;;;12.20;99.90;;;;;;6212803;23;20012;-93
2021/04/18 12:11:29;;;;;;;10.65;5.18;;;12.20;99.90;;;;;;6186797;23;20100;-94
2021/04/18 12:14:01;;;;;;;15.93;4.72;;;12.20;99.90;;;;;;6212508;23;20405;-94
2021/04/18 12:16:27;;;;;;;13.10;5.30;;;12.10;99.90;;;;;;6211184;23;20043;-94
2021/04/18 12:18:53;;;;;;;13.07;4.85;;;12.10;99.90;;;;;;6187057;23;20066;-95
2021/04/18 12:21:27;;;;;;;13.77;4.82;;;12.10;99.90;;;;;;6186566;23;20379;-94
2021/04/18 12:23:53;;;;;;;8.30;3.55;;;12.30;99.90;;;;;;6211805;23;20044;-92
2021/04/18 12:26:19;;;;;;;14.60;4.57;;;12.20;99.90;;;;;;6186141;23;20700;-94
2021/04/18 12:28:48;;;;;;;6.13;3.65;;;12.20;99.90;;;;;;6212721;23;20040;-95
2021/04/18 12:31:18;;;;;;;13.80;3.88;;;12.30;99.90;;;;;;6187283;23;20017;-94
2021/04/18 12:33:44;;;;;;;12.00;4.18;;;12.30;99.90;;;;;;6213640;23;20020;-93
2021/04/18 12:36:10;;;;;;;9.77;3.38;;;12.30;99.90;;;;;;6186809;23;20017;-94
2021/04/18 12:38:37;;;;;;;9.40;3.50;;;12.30;99.90;;;;;;6187108;23;20025;-93
2021/04/18 12:41:06;;;;;;;12.68;4.10;;;12.40;99.90;;;;;;6212471;23;20338;-94
2021/04/18 12:43:39;;;;;;;7.65;3.65;;;12.20;99.90;;;;;;6187141;23;20480;-95
2021/04/18 12:46:06;;;;;;;7.68;3.10;;;12.10;99.90;;;;;;6212226;23;20021;-95
2021/04/18 12:48:32;;;;;;;7.28;3.08;;;12.10;99.90;;;;;;6186537;23;20025;-94
2021/04/18 12:50:59;;;;;;;12.40;3.67;;;12.20;99.90;;;;;;6211993;23;20072;-94
2021/04/18 12:53:27;;;;;;;11.52;3.40;;;12.30;99.90;;;;;;6162038;23;20021;-93
2021/04/18 12:55:53;;;;;;;3.75;1.75;;;12.20;99.90;;;;;;6210737;23;20091;-94
2021/04/18 12:58:19;;;;;;;7.45;2.97;;;12.30;99.90;;;;;;6211037;23;20050;-93
2021/04/18 13:00:45;;;;;;;6.57;3.40;;;12.30;99.90;;;;;;6211842;23;20084;-94
2021/04/18 13:03:11;;;;;;;4.68;2.53;;;12.40;99.90;;;;;;6186591;23;20031;-95
2021/04/18 13:05:41;;;;;;;8.13;3.58;;;12.30;99.90;;;;;;6186662;23;20013;-94
2021/04/18 13:08:12;;;;;;;7.63;3.38;;;12.30;99.90;;;;;;6187119;23;20155;-93
2021/04/18 13:10:41;;;;;;;5.97;3.25;;;12.50;99.90;;;;;;6187497;23;20042;-94
2021/04/18 13:13:17;;;;;;;9.45;3.67;;;12.40;99.90;;;;;;6187090;23;20070;-95
2021/04/18 13:15:49;;;;;;;10.35;3.60;;;12.40;99.90;;;;;;6187372;23;20021;-93
2021/04/18 13:18:18;;;;;;;12.75;4.38;;;12.60;99.90;;;;;;6137771;23;20719;-93
2021/04/18 13:20:44;;;;;;;12.82;3.75;;;12.40;99.90;;;;;;6211776;23;20019;-94
2021/04/18 13:23:17;;;;;;;11.63;4.05;;;12.40;99.90;;;;;;6211620;23;20012;-94
2021/04/18 13:25:46;;;;;;;9.65;3.75;;;12.40;99.90;;;;;;6211915;23;20044;-95
2021/04/18 13:28:14;;;;;;;18.58;3.92;;;12.30;99.90;;;;;;6211328;23;20040;-95
2021/04/18 13:30:45;;;;;;;11.27;4.63;;;12.20;99.90;;;;;;6222326;23;20027;-94
2021/04/18 13:33:11;;;;;;;11.15;4.38;;;12.40;99.90;;;;;;6186403;23;20032;-94
2021/04/18 13:35:40;;;;;;;7.55;3.80;;;12.40;99.90;;;;;;6211301;23;20009;-94
2021/04/18 13:38:07;;;;;;;12.55;4.30;;;12.40;99.90;;;;;;6211613;23;20016;-93
2021/04/18 13:40:43;;;;;;;9.85;5.13;;;12.30;99.90;;;;;;6186855;23;20067;-93
2021/04/18 13:43:12;;;;;;;13.38;4.53;;;12.40;99.90;;;;;;6211795;23;20024;-94
2021/04/18 13:45:38;;;;;;;6.78;4.60;;;12.50;99.90;;;;;;6186140;23;20547;-94
2021/04/18 13:48:04;;;;;;;16.08;4.60;;;12.50;99.90;;;;;;6161277;23;20021;-95
2021/04/18 13:50:30;;;;;;;12.48;5.00;;;12.50;99.90;;;;;;6185453;23;20521;-93
2021/04/18 13:52:56;;;;;;;16.08;5.05;;;12.50;99.90;;;;;;6186513;23;20083;-93
2021/04/18 13:55:22;;;;;;;9.00;4.40;;;12.50;99.90;;;;;;6159242;23;20020;-93
2021/04/18 13:57:49;;;;;;;9.70;4.70;;;12.60;99.90;;;;;;6161255;23;20013;-94
2021/04/18 14:00:19;;;;;;;5.15;3.58;;;12.60;99.90;;;;;;6210660;23;20020;-95
2021/04/18 14:02:45;;;;;;;11.48;4.45;;;12.50;99.90;;;;;;6160279;23;20436;-94
2021/04/18 14:05:13;;;;;;;12.05;4.95;;;12.50;99.90;;;;;;6184185;23;20089;-93
2021/04/18 14:07:40;;;;;;;12.63;5.28;;;12.50;99.90;;;;;;6183747;23;20016;-95
2021/04/18 14:10:07;;;;;;;7.40;4.55;;;12.40;99.90;;;;;;6161214;23;20107;-94
2021/04/18 14:12:33;;;;;;;6.28;4.40;;;12.50;99.90;;;;;;6186093;23;20099;-95
2021/04/18 14:15:02;;;;;;;16.65;4.47;;;12.80;99.90;;;;;;6186688;23;20100;-94
2021/04/18 14:17:31;;;;;;;8.02;4.45;;;12.70;99.90;;;;;;6161537;23;20021;-95
2021/04/18 14:19:57;;;;;;;11.90;4.60;;;12.70;99.90;;;;;;6161896;23;20328;-93
2021/04/18 14:22:24;;;;;;;11.90;4.55;;;12.90;99.90;;;;;;6186020;23;20017;-95
2021/04/18 14:24:55;;;;;;;14.07;4.72;;;12.70;99.90;;;;;;6187518;23;20017;-95
2021/04/18 14:27:30;;;;;;;12.13;4.63;;;12.60;99.90;;;;;;6161231;23;20095;-94
2021/04/18 14:30:05;;;;;;;9.70;4.45;;;12.60;99.90;;;;;;6197061;23;20020;-94
2021/04/18 14:32:32;;;;;;;11.38;4.70;;;12.50;99.90;;;;;;6223885;23;20023;-96
2021/04/18 14:35:06;;;;;;;10.38;4.55;;;12.90;99.90;;;;;;6188600;23;20013;-93
2021/04/18 14:37:34;;;;;;;11.25;4.97;;;12.90;99.90;;;;;;6138678;23;20099;-95
2021/04/18 14:40:04;;;;;;;16.85;5.18;;;13.20;99.90;;;;;;6163558;23;20017;-94
2021/04/18 14:42:33;;;;;;;9.38;4.68;;;13.20;99.90;;;;;;6188907;23;20053;-94
2021/04/18 14:45:06;;;;;;;9.07;4.45;;;13.00;99.90;;;;;;6189819;23;20020;-95
2021/04/18 14:47:42;;;;;;;16.08;5.50;;;12.80;99.90;;;;;;6162777;23;20021;-95
2021/04/18 14:50:13;;;;;;;13.50;6.78;;;12.60;99.90;;;;;;6164007;23;20091;-95
2021/04/18 14:52:44;;;;;;;16.83;5.63;;;12.70;99.90;;;;;;6164351;23;20374;-95
2021/04/18 14:55:14;;;;;;;12.40;6.03;;;12.80;99.90;;;;;;6191404;23;20016;-94
2021/04/18 14:57:48;;;;;;;12.23;5.45;;;12.90;99.90;;;;;;6163813;23;20252;-93
2021/04/18 15:00:24;;;;;;;20.90;6.85;;;12.80;99.90;;;;;;6188845;23;20469;-94
2021/04/18 15:03:04;;;;;;;6.85;4.68;;;12.90;99.90;;;;;;6199138;23;20008;-94
2021/04/18 15:05:30;;;;;;;8.23;5.00;;;12.70;99.90;;;;;;6163139;23;20095;-95
2021/04/18 15:07:59;;;;;;;12.38;5.13;;;12.70;99.90;;;;;;6189194;23;20017;-94
2021/04/18 15:10:33;;;;;;;9.68;4.40;;;12.50;99.90;;;;;;6188861;23;20371;-95
2021/04/18 15:13:04;;;;;;;9.98;4.72;;;12.40;99.90;;;;;;6188130;23;20013;-94
2021/04/18 15:15:54;;;;;;;10.90;4.70;;;12.20;99.90;;;;;;6191714;23;20016;-92
2021/04/18 15:18:27;;;;;;;11.73;5.57;;;12.30;99.90;;;;;;6175116;23;20094;-95
2021/04/18 15:20:54;;;;;;;11.63;5.43;;;12.30;99.90;;;;;;6163313;23;20422;-95
2021/04/18 15:23:20;;;;;;;11.00;5.07;;;12.30;99.90;;;;;;6187449;23;20438;-93
2021/04/18 15:25:50;;;;;;;10.25;5.03;;;12.50;99.90;;;;;;6188112;23;20019;-95
2021/04/18 15:28:18;;;;;;;7.50;4.47;;;12.40;99.90;;;;;;6214919;23;20017;-96
2021/04/18 15:30:52;;;;;;;9.48;5.05;;;12.50;99.90;;;;;;6186529;23;20458;-93
2021/04/18 15:33:22;;;;;;;7.53;4.72;;;12.60;99.90;;;;;;6183457;23;20020;-92
2021/04/18 15:35:48;;;;;;;19.33;6.40;;;12.50;99.90;;;;;;6210235;23;20087;-93
2021/04/18 15:38:15;;;;;;;12.63;5.15;;;12.40;99.90;;;;;;6160766;23;20048;-96
2021/04/18 15:40:44;;;;;;;8.93;4.97;;;12.40;99.90;;;;;;6187368;23;20017;-95
2021/04/18 15:43:12;;;;;;;13.60;5.20;;;12.40;99.90;;;;;;6188642;23;20447;-94
2021/04/18 15:45:39;;;;;;;15.02;6.25;;;12.40;99.90;;;;;;6163326;23;20393;-95
2021/04/18 15:48:05;;;;;;;13.57;5.78;;;12.50;99.90;;;;;;6163543;23;20086;-95
2021/04/18 15:50:32;;;;;;;11.95;5.45;;;12.40;99.90;;;;;;6187737;23;20020;-95
2021/04/18 15:52:59;;;;;;;11.82;5.88;;;12.40;99.90;;;;;;6163719;23;20312;-95
2021/04/18 15:55:25;;;;;;;14.98;4.93;;;12.30;99.90;;;;;;6162178;23;20111;-94
2021/04/18 15:57:52;;;;;;;9.90;5.57;;;12.30;99.90;;;;;;6163268;23;20047;-95
2021/04/18 16:00:19;;;;;;;12.27;5.57;;;12.20;99.90;;;;;;6187984;23;20016;-95
2021/04/18 16:02:47;;;;;;;18.58;5.60;;;12.20;99.90;;;;;;6187542;23;20524;-94
2021/04/18 16:05:14;;;;;;;13.95;5.50;;;12.30;99.90;;;;;;6163415;23;20036;-94
2021/04/18 16:07:40;;;;;;;18.38;5.88;;;12.20;99.90;;;;;;6162699;23;20402;-94
2021/04/18 16:10:07;;;;;;;19.60;6.32;;;12.30;99.90;;;;;;6163020;23;20021;-95
2021/04/18 16:12:33;;;;;;;13.82;5.90;;;12.40;99.90;;;;;;6162660;23;20027;-95
2021/04/18 16:15:02;;;;;;;14.40;5.82;;;12.20;99.90;;;;;;6163627;23;20020;-95
2021/04/18 16:17:38;;;;;;;13.25;5.95;;;12.10;99.90;;;;;;6162441;23;20350;-95
2021/04/18 16:20:09;;;;;;;14.60;5.88;;;12.10;99.90;;;;;;6188500;23;20023;-95
2021/04/18 16:22:36;;;;;;;15.32;6.25;;;12.00;99.90;;;;;;6188267;23;20091;-95
2021/04/18 16:25:03;;;;;;;16.48;5.82;;;12.10;99.90;;;;;;6188104;23;20015;-96
2021/04/18 16:27:29;;;;;;;17.48;7.30;;;12.30;99.90;;;;;;6162547;23;20483;-95
2021/04/18 16:29:55;;;;;;;15.77;6.32;;;12.20;99.90;;;;;;6163766;23;20016;-94
2021/04/18 16:32:21;;;;;;;27.17;7.07;;;12.00;99.90;;;;;;6188132;23;20017;-95
2021/04/18 16:34:48;;;;;;;16.80;6.05;;;11.90;99.90;;;;;;6187773;23;20016;-95
2021/04/18 16:37:15;;;;;;;12.23;5.55;;;11.90;99.90;;;;;;6161925;23;20431;-94
2021/04/18 16:39:45;;;;;;;12.38;6.22;;;12.20;99.90;;;;;;6162015;23;20012;-94
2021/04/18 16:42:11;;;;;;;13.57;6.38;;;12.20;99.90;;;;;;6187298;23;20051;-96
2021/04/18 16:44:40;;;;;;;12.05;5.95;;;12.20;99.90;;;;;;6161556;23;20013;-95
2021/04/18 16:47:06;;;;;;;10.60;6.00;;;12.50;99.90;;;;;;6162147;23;20037;-96
2021/04/18 16:49:34;;;;;;;20.85;6.00;;;12.90;99.90;;;;;;6186073;23;20024;-96
2021/04/18 16:52:00;;;;;;;19.73;6.38;;;13.10;99.90;;;;;;6161955;23;20032;-95
2021/04/18 16:54:27;;;;;;;13.18;6.47;;;13.30;99.90;;;;;;6186854;23;20013;-93
2021/04/18 16:56:53;;;;;;;13.13;6.03;;;13.60;99.90;;;;;;6165225;23;20021;-95
2021/04/18 16:59:22;;;;;;;13.50;5.75;;;13.50;99.90;;;;;;6213278;23;20024;-95
2021/04/18 17:01:56;;;;;;;13.93;5.95;;;13.40;99.90;;;;;;6160524;23;20609;-94
2021/04/18 17:04:22;;;;;;;12.63;5.78;;;13.20;99.90;;;;;;6162138;23;20044;-93
2021/04/18 17:06:48;;;;;;;10.98;5.70;;;12.90;99.90;;;;;;6161965;23;20024;-91